Time,TemperatureF,DewpointF,PressureIn,WindDirection,WindDirectionDegrees,WindSpeedMPH,WindSpeedGustMPH,Humidity,HourlyPrecipIn,Conditions,Clouds,dailyrainin,SoftwareType,DateUTC
2013-03-18 00:05:00,37.4,35.3,30.26,NNW,336,0.0,0.0,92,0.00,,,0.00,Wunderground v.1.15,2013-03-18 07:05:00,
2013-03-18 00:10:00,37.2,35.4,30.26,NNW,336,0.0,0.0,93,0.00,,,0.00,Wunderground v.1.15,2013-03-18 07:10:00,
2013-03-18 00:20:00,37.0,35.4,30.26,NNW,336,0.0,0.0,94,0.00,,,0.00,Wunderground v.1.15,2013-03-18 07:20:00,
2013-03-18 00:30:00,36.9,35.3,30.26,NNW,336,0.0,0.0,94,0.00,,,0.00,Wunderground v.1.15,2013-03-18 07:30:00,
2013-03-18 00:40:00,36.7,35.4,30.26,NNW,336,0.0,0.0,95,0.00,,,0.00,Wunderground v.1.15,2013-03-18 07:40:00,
2013-03-18 00:50:00,36.7,35.4,30.27,NNW,336,0.0,0.0,95,0.00,,,0.00,Wunderground v.1.15,2013-03-18 07:50:00,
2013-03-18 01:05:00,36.6,35.3,30.26,NNW,336,0.0,0.0,95,0.00,,,0.00,Wunderground v.1.15,2013-03-18 08:05:00,
2013-03-18 01:15:00,36.6,35.6,30.26,South,190,0.0,0.0,96,0.00,,,0.00,Wunderground v.1.15,2013-03-18 08:15:00,
2013-03-18 01:25:00,36.7,35.7,30.25,South,190,0.0,0.0,96,0.00,,,0.00,Wunderground v.1.15,2013-03-18 08:25:00,
2013-03-18 01:35:00,36.6,35.6,30.25,South,190,0.0,0.0,96,0.00,,,0.00,Wunderground v.1.15,2013-03-18 08:35:00,
2013-03-18 01:45:00,36.2,34.9,30.25,South,190,0.0,0.0,95,0.00,,,0.00,Wunderground v.1.15,2013-03-18 08:45:00,
2013-03-18 01:55:00,35.6,34.3,30.25,South,190,0.0,0.0,95,0.00,,,0.00,Wunderground v.1.15,2013-03-18 08:55:00,
2013-03-18 02:05:00,35.3,34.0,30.25,South,190,0.0,0.0,95,0.00,,,0.00,Wunderground v.1.15,2013-03-18 09:05:00,
2013-03-18 02:10:00,35.2,34.2,30.25,South,190,0.0,0.0,96,0.00,,,0.00,Wunderground v.1.15,2013-03-18 09:10:00,
2013-03-18 02:20:00,35.3,34.3,30.24,South,190,0.0,0.0,96,0.00,,,0.00,Wunderground v.1.15,2013-03-18 09:20:00,
2013-03-18 02:35:00,35.3,34.5,30.24,South,190,0.0,0.0,97,0.00,,,0.00,Wunderground v.1.15,2013-03-18 09:35:00,
2013-03-18 02:50:00,35.1,34.1,30.24,South,190,0.0,0.0,96,0.00,,,0.00,Wunderground v.1.15,2013-03-18 09:50:00,
2013-03-18 03:05:00,34.4,33.4,30.25,South,191,0.0,0.0,96,0.00,,,0.00,Wunderground v.1.15,2013-03-18 10:05:00,
2013-03-18 03:20:00,33.8,32.8,30.25,WSW,237,0.0,0.0,96,0.00,,,0.00,Wunderground v.1.15,2013-03-18 10:20:00,
2013-03-18 03:30:00,33.5,32.5,30.24,WSW,237,0.0,0.0,96,0.00,,,0.00,Wunderground v.1.15,2013-03-18 10:30:00,
2013-03-18 03:35:00,33.5,32.7,30.24,WSW,237,0.0,0.0,97,0.00,,,0.00,Wunderground v.1.15,2013-03-18 10:35:00,
2013-03-18 03:50:00,33.6,32.8,30.24,WSW,237,0.0,0.0,97,0.00,,,0.00,Wunderground v.1.15,2013-03-18 10:50:00,
2013-03-18 04:05:00,33.5,32.7,30.24,WSW,237,0.0,0.0,97,0.00,,,0.00,Wunderground v.1.15,2013-03-18 11:05:00,
2013-03-18 04:10:00,33.5,32.7,30.24,WSW,237,0.0,0.0,97,0.00,,,0.00,Wunderground v.1.15,2013-03-18 11:10:00,
2013-03-18 04:20:00,33.4,32.6,30.23,WSW,237,0.0,0.0,97,0.00,,,0.00,Wunderground v.1.15,2013-03-18 11:20:00,
2013-03-18 04:35:00,32.9,32.1,30.23,WSW,237,0.0,0.0,97,0.00,,,0.00,Wunderground v.1.15,2013-03-18 11:35:00,
2013-03-18 04:50:00,32.2,31.4,30.23,WSW,237,0.0,0.0,97,0.00,,,0.00,Wunderground v.1.15,2013-03-18 11:50:00,
2013-03-18 05:05:00,31.9,31.1,30.23,WSW,237,0.0,0.0,97,0.00,,,0.00,Wunderground v.1.15,2013-03-18 12:05:00,
2013-03-18 05:10:00,31.7,30.9,30.23,WSW,237,0.0,0.0,97,0.00,,,0.00,Wunderground v.1.15,2013-03-18 12:10:00,
2013-03-18 05:20:00,31.5,30.7,30.23,WSW,237,0.0,0.0,97,0.00,,,0.00,Wunderground v.1.15,2013-03-18 12:20:00,
2013-03-18 05:30:00,31.2,30.4,30.23,WSW,237,0.0,0.0,97,0.00,,,0.00,Wunderground v.1.15,2013-03-18 12:30:00,
2013-03-18 05:35:00,31.1,30.3,30.24,WSW,237,0.0,0.0,97,0.00,,,0.00,Wunderground v.1.15,2013-03-18 12:35:00,
2013-03-18 05:50:00,30.7,30.0,30.24,WSW,237,0.0,0.0,97,0.00,,,0.00,Wunderground v.1.15,2013-03-18 12:50:00,
2013-03-18 06:01:00,30.4,29.7,30.24,WSW,237,0.0,0.0,97,0.00,,,0.00,Wunderground v.1.15,2013-03-18 13:01:00,
2013-03-18 06:10:00,30.4,29.7,30.24,WSW,237,0.0,0.0,97,0.00,,,0.00,Wunderground v.1.15,2013-03-18 13:10:00,
2013-03-18 06:25:00,30.4,29.7,30.25,WSW,237,0.0,0.0,97,0.00,,,0.00,Wunderground v.1.15,2013-03-18 13:25:00,
2013-03-18 06:45:00,30.6,30.1,30.25,WSW,237,0.0,0.0,98,0.00,,,0.00,Wunderground v.1.15,2013-03-18 13:45:00,
2013-03-18 07:05:00,30.7,30.2,30.24,WSW,237,0.0,0.0,98,0.00,,,0.00,Wunderground v.1.15,2013-03-18 14:05:00,
2013-03-18 07:15:00,30.7,30.2,30.24,WSW,237,0.0,0.0,98,0.00,,,0.00,Wunderground v.1.15,2013-03-18 14:15:00,
2013-03-18 07:25:00,30.6,30.1,30.24,WSW,237,0.0,0.0,98,0.00,,,0.00,Wunderground v.1.15,2013-03-18 14:25:00,
2013-03-18 07:35:00,30.7,30.2,30.24,WSW,237,0.0,0.0,98,0.00,,,0.00,Wunderground v.1.15,2013-03-18 14:35:00,
2013-03-18 07:50:00,30.7,30.2,30.25,WSW,237,0.0,0.0,98,0.00,,,0.00,Wunderground v.1.15,2013-03-18 14:50:00,
2013-03-18 08:05:00,30.7,30.2,30.25,WSW,242,0.0,0.0,98,0.00,,,0.00,Wunderground v.1.15,2013-03-18 15:05:00,
2013-03-18 08:10:00,30.7,30.2,30.25,WSW,242,0.0,0.0,98,0.00,,,0.00,Wunderground v.1.15,2013-03-18 15:10:00,
2013-03-18 08:25:00,30.8,30.3,30.26,WSW,242,0.0,0.0,98,0.00,,,0.00,Wunderground v.1.15,2013-03-18 15:25:00,
2013-03-18 08:35:00,31.2,30.7,30.26,WSW,242,0.0,0.0,98,0.00,,,0.00,Wunderground v.1.15,2013-03-18 15:35:00,
2013-03-18 08:40:00,31.4,30.9,30.26,WSW,242,0.0,0.0,98,0.00,,,0.00,Wunderground v.1.15,2013-03-18 15:40:00,
2013-03-18 08:55:00,32.0,31.5,30.26,WSW,242,0.0,0.0,98,0.00,,,0.00,Wunderground v.1.15,2013-03-18 15:55:00,
2013-03-18 09:10:00,33.0,32.5,30.25,ENE,65,0.0,0.0,98,0.00,,,0.00,Wunderground v.1.15,2013-03-18 16:10:00,
2013-03-18 09:15:00,33.5,33.0,30.25,ENE,65,0.0,0.0,98,0.00,,,0.00,Wunderground v.1.15,2013-03-18 16:15:00,
2013-03-18 09:30:00,35.1,34.8,30.25,East,89,0.0,0.0,99,0.00,,,0.00,Wunderground v.1.15,2013-03-18 16:30:00,
2013-03-18 09:40:00,35.7,35.4,30.25,SE,130,0.0,0.0,99,0.00,,,0.00,Wunderground v.1.15,2013-03-18 16:40:00,
2013-03-18 09:55:00,36.7,36.4,30.25,SE,130,0.0,0.0,99,0.00,,,0.00,Wunderground v.1.15,2013-03-18 16:55:00,
2013-03-18 10:05:00,37.9,37.6,30.24,ESE,117,0.0,1.0,99,0.00,,,0.00,Wunderground v.1.15,2013-03-18 17:05:00,
2013-03-18 10:10:00,38.6,38.1,30.24,ESE,117,1.0,1.0,98,0.00,,,0.00,Wunderground v.1.15,2013-03-18 17:10:00,
2013-03-18 10:20:00,39.6,38.0,30.24,SE,131,0.0,3.0,94,0.00,,,0.00,Wunderground v.1.15,2013-03-18 17:20:00,
2013-03-18 10:30:00,41.3,38.9,30.23,SE,136,1.0,3.0,91,0.00,,,0.00,Wunderground v.1.15,2013-03-18 17:30:00,
2013-03-18 10:51:00,43.3,39.1,30.23,NNW,329,1.0,1.0,85,0.00,,,0.00,Wunderground v.1.15,2013-03-18 17:51:00,
2013-03-18 11:05:00,44.1,38.3,30.23,WNW,297,1.0,1.0,80,0.00,,,0.00,Wunderground v.1.15,2013-03-18 18:05:00,
2013-03-18 11:10:00,44.7,39.5,30.22,WSW,257,2.0,2.0,82,0.00,,,0.00,Wunderground v.1.15,2013-03-18 18:10:00,
2013-03-18 11:20:00,45.9,40.1,30.22,NNW,346,1.0,1.0,80,0.00,,,0.00,Wunderground v.1.15,2013-03-18 18:20:00,
2013-03-18 11:35:00,47.0,40.2,30.22,NE,45,1.0,1.0,77,0.00,,,0.00,Wunderground v.1.15,2013-03-18 18:35:00,
2013-03-18 11:50:00,48.4,41.2,30.21,NE,34,2.0,2.0,76,0.00,,,0.00,Wunderground v.1.15,2013-03-18 18:50:00,
2013-03-18 12:05:00,49.5,40.5,30.20,WNW,290,1.0,2.0,71,0.00,,,0.00,Wunderground v.1.15,2013-03-18 19:05:00,
2013-03-18 12:15:00,50.4,40.6,30.19,South,186,2.0,2.0,69,0.00,,,0.00,Wunderground v.1.15,2013-03-18 19:15:00,
2013-03-18 12:25:00,51.7,41.5,30.19,NNE,24,2.0,2.0,68,0.00,,,0.00,Wunderground v.1.15,2013-03-18 19:25:00,
2013-03-18 12:35:00,52.6,42.7,30.18,West,271,2.0,4.0,69,0.00,,,0.00,Wunderground v.1.15,2013-03-18 19:35:00,
2013-03-18 12:50:00,52.9,42.6,30.18,North,350,2.0,2.0,68,0.00,,,0.00,Wunderground v.1.15,2013-03-18 19:50:00,
2013-03-18 13:05:00,53.5,41.2,30.17,WSW,258,2.0,2.0,63,0.00,,,0.00,Wunderground v.1.15,2013-03-18 20:05:00,
2013-03-18 13:10:00,53.7,40.6,30.17,WNW,288,2.0,6.0,61,0.00,,,0.00,Wunderground v.1.15,2013-03-18 20:10:00,
2013-03-18 13:20:00,55.0,43.0,30.17,NW,318,2.0,3.0,64,0.00,,,0.00,Wunderground v.1.15,2013-03-18 20:20:00,
2013-03-18 13:40:00,56.2,40.2,30.16,NNE,33,2.0,2.0,55,0.00,,,0.00,Wunderground v.1.15,2013-03-18 20:40:00,
2013-03-18 13:51:00,57.1,40.1,30.16,North,355,2.0,2.0,53,0.00,,,0.00,Wunderground v.1.15,2013-03-18 20:51:00,
2013-03-18 14:05:00,57.3,40.8,30.15,SSW,212,2.0,2.0,54,0.00,,,0.00,Wunderground v.1.15,2013-03-18 21:05:00,
2013-03-18 14:10:00,57.5,40.0,30.15,NNW,337,1.0,2.0,52,0.00,,,0.00,Wunderground v.1.15,2013-03-18 21:10:00,
2013-03-18 14:20:00,58.1,42.9,30.14,North,10,2.0,2.0,57,0.00,,,0.00,Wunderground v.1.15,2013-03-18 21:20:00,
2013-03-18 14:30:00,58.0,39.5,30.13,WNW,302,2.0,5.0,50,0.00,,,0.00,Wunderground v.1.15,2013-03-18 21:30:00,
2013-03-18 14:45:00,58.5,42.4,30.12,North,355,3.0,5.0,55,0.00,,,0.00,Wunderground v.1.15,2013-03-18 21:45:00,
2013-03-18 14:50:00,58.8,39.7,30.12,West,272,3.0,5.0,49,0.00,,,0.00,Wunderground v.1.15,2013-03-18 21:50:00,
2013-03-18 15:05:00,58.9,41.3,30.11,NW,325,2.0,4.0,52,0.00,,,0.00,Wunderground v.1.15,2013-03-18 22:05:00,
2013-03-18 15:10:00,59.2,41.1,30.11,WNW,289,2.0,4.0,51,0.00,,,0.00,Wunderground v.1.15,2013-03-18 22:10:00,
2013-03-18 15:20:00,59.3,41.7,30.10,NNW,335,2.0,2.0,52,0.00,,,0.00,Wunderground v.1.15,2013-03-18 22:20:00,
2013-03-18 15:35:00,59.9,40.7,30.10,WNW,300,2.0,2.0,49,0.00,,,0.00,Wunderground v.1.15,2013-03-18 22:35:00,
2013-03-18 15:40:00,60.0,41.3,30.10,North,355,3.0,3.0,50,0.00,,,0.00,Wunderground v.1.15,2013-03-18 22:40:00,
2013-03-18 15:50:00,59.8,41.6,30.09,WNW,294,3.0,5.0,51,0.00,,,0.00,Wunderground v.1.15,2013-03-18 22:50:00,
2013-03-18 16:05:00,58.7,43.5,30.09,WNW,297,4.0,6.0,57,0.00,,,0.00,Wunderground v.1.15,2013-03-18 23:05:00,
2013-03-18 16:10:00,58.2,42.1,30.09,NW,323,4.0,6.0,55,0.00,,,0.00,Wunderground v.1.15,2013-03-18 23:10:00,
2013-03-18 16:20:00,57.9,45.0,30.09,WNW,294,4.0,6.0,62,0.00,,,0.00,Wunderground v.1.15,2013-03-18 23:20:00,
2013-03-18 16:30:00,57.5,44.1,30.09,West,279,3.0,5.0,61,0.00,,,0.00,Wunderground v.1.15,2013-03-18 23:30:00,
2013-03-18 16:40:00,56.7,44.2,30.09,NW,305,4.0,4.0,63,0.00,,,0.00,Wunderground v.1.15,2013-03-18 23:40:00,
2013-03-18 16:50:00,55.9,44.3,30.09,WNW,293,3.0,12.0,65,0.00,,,0.00,Wunderground v.1.15,2013-03-18 23:50:00,
2013-03-18 17:05:00,54.8,44.0,30.08,NW,320,3.0,5.0,67,0.00,,,0.00,Wunderground v.1.15,2013-03-19 00:05:00,
2013-03-18 17:10:00,54.4,43.3,30.08,NNW,337,3.0,5.0,66,0.00,,,0.00,Wunderground v.1.15,2013-03-19 00:10:00,
2013-03-18 17:30:00,54.0,43.7,30.07,West,269,3.0,3.0,68,0.00,,,0.00,Wunderground v.1.15,2013-03-19 00:30:00,
2013-03-18 17:45:00,53.8,43.9,30.07,West,269,2.0,2.0,69,0.00,,,0.00,Wunderground v.1.15,2013-03-19 00:45:00,
2013-03-18 17:55:00,53.6,43.7,30.07,WSW,238,2.0,3.0,69,0.00,,,0.00,Wunderground v.1.15,2013-03-19 00:55:00,
2013-03-18 18:05:00,53.3,43.4,30.07,NW,322,3.0,3.0,69,0.00,,,0.00,Wunderground v.1.15,2013-03-19 01:05:00,
2013-03-18 18:15:00,53.0,43.5,30.07,West,270,1.0,1.0,70,0.00,,,0.00,Wunderground v.1.15,2013-03-19 01:15:00,
2013-03-18 18:25:00,52.7,43.6,30.07,NNW,333,1.0,1.0,71,0.00,,,0.00,Wunderground v.1.15,2013-03-19 01:25:00,
2013-03-18 18:35:00,52.3,43.9,30.07,NW,304,2.0,2.0,73,0.00,,,0.00,Wunderground v.1.15,2013-03-19 01:35:00,
2013-03-18 18:46:00,51.7,43.7,30.07,WNW,299,1.0,4.0,74,0.00,,,0.00,Wunderground v.1.15,2013-03-19 01:46:00,
2013-03-18 18:55:00,51.2,43.5,30.07,NW,317,0.0,1.0,75,0.00,,,0.00,Wunderground v.1.15,2013-03-19 01:55:00,
2013-03-18 19:10:00,50.6,43.7,30.07,NW,319,0.0,0.0,77,0.00,,,0.00,Wunderground v.1.15,2013-03-19 02:10:00,
2013-03-18 19:20:00,50.2,43.9,30.07,NW,319,0.0,0.0,79,0.00,,,0.00,Wunderground v.1.15,2013-03-19 02:20:00,
2013-03-18 19:35:00,49.4,43.5,30.07,NW,319,0.0,0.0,80,0.00,,,0.00,Wunderground v.1.15,2013-03-19 02:35:00,
2013-03-18 19:45:00,49.1,43.5,30.07,NW,319,0.0,0.0,81,0.00,,,0.00,Wunderground v.1.15,2013-03-19 02:45:00,
2013-03-18 19:50:00,48.8,43.5,30.07,NW,319,0.0,0.0,82,0.00,,,0.00,Wunderground v.1.15,2013-03-19 02:50:00,
2013-03-18 20:05:00,48.3,43.4,30.07,NW,319,0.0,0.0,83,0.00,,,0.00,Wunderground v.1.15,2013-03-19 03:05:00,
2013-03-18 20:15:00,47.9,43.3,30.07,NW,319,0.0,0.0,84,0.00,,,0.00,Wunderground v.1.15,2013-03-19 03:15:00,
2013-03-18 20:20:00,47.8,43.2,30.07,NW,319,0.0,0.0,84,0.00,,,0.00,Wunderground v.1.15,2013-03-19 03:20:00,
2013-03-18 20:25:00,47.7,43.1,30.07,NW,319,0.0,0.0,84,0.00,,,0.00,Wunderground v.1.15,2013-03-19 03:25:00,
2013-03-18 20:35:00,47.4,43.1,30.07,NW,319,0.0,0.0,85,0.00,,,0.00,Wunderground v.1.15,2013-03-19 03:35:00,
2013-03-18 20:45:00,47.0,43.0,30.07,NW,319,0.0,0.0,86,0.00,,,0.00,Wunderground v.1.15,2013-03-19 03:45:00,
2013-03-18 20:56:00,46.9,43.2,30.07,NW,319,0.0,0.0,87,0.00,,,0.00,Wunderground v.1.15,2013-03-19 03:56:00,
2013-03-18 21:05:00,46.7,43.0,30.07,NW,319,0.0,0.0,87,0.00,,,0.00,Wunderground v.1.15,2013-03-19 04:05:00,
2013-03-18 21:11:00,46.6,43.2,30.07,NW,319,0.0,0.0,88,0.00,,,0.00,Wunderground v.1.15,2013-03-19 04:11:00,
2013-03-18 21:15:00,46.5,43.1,30.07,NW,319,0.0,0.0,88,0.00,,,0.00,Wunderground v.1.15,2013-03-19 04:15:00,
2013-03-18 21:20:00,46.4,43.0,30.07,NW,319,0.0,0.0,88,0.00,,,0.00,Wunderground v.1.15,2013-03-19 04:20:00,
2013-03-18 21:25:00,46.3,42.9,30.07,NW,319,0.0,0.0,88,0.00,,,0.00,Wunderground v.1.15,2013-03-19 04:25:00,
2013-03-18 21:35:00,46.2,43.1,30.07,NW,319,0.0,0.0,89,0.00,,,0.00,Wunderground v.1.15,2013-03-19 04:35:00,
2013-03-18 21:45:00,46.2,43.4,30.07,NW,319,0.0,0.0,90,0.00,,,0.00,Wunderground v.1.15,2013-03-19 04:45:00,
2013-03-18 21:55:00,46.1,43.3,30.06,NW,319,0.0,0.0,90,0.00,,,0.00,Wunderground v.1.15,2013-03-19 04:55:00,
2013-03-18 22:05:00,46.1,43.3,30.06,NW,319,0.0,0.0,90,0.00,,,0.00,Wunderground v.1.15,2013-03-19 05:05:00,
2013-03-18 22:10:00,46.0,43.2,30.06,NW,319,0.0,0.0,90,0.00,,,0.00,Wunderground v.1.15,2013-03-19 05:10:00,
2013-03-18 22:20:00,45.9,43.1,30.06,NW,319,0.0,0.0,90,0.00,,,0.00,Wunderground v.1.15,2013-03-19 05:20:00,
2013-03-18 22:26:00,45.8,43.3,30.06,NW,319,0.0,0.0,91,0.00,,,0.00,Wunderground v.1.15,2013-03-19 05:26:00,
2013-03-18 22:35:00,45.7,43.2,30.06,NW,319,0.0,0.0,91,0.00,,,0.00,Wunderground v.1.15,2013-03-19 05:35:00,
2013-03-18 22:40:00,45.6,43.1,30.06,NW,319,0.0,0.0,91,0.00,,,0.00,Wunderground v.1.15,2013-03-19 05:40:00,
2013-03-18 22:51:00,45.4,42.9,30.05,NW,319,0.0,0.0,91,0.00,,,0.00,Wunderground v.1.15,2013-03-19 05:51:00,
2013-03-18 23:05:00,45.2,43.0,30.06,NW,319,0.0,0.0,92,0.00,,,0.00,Wunderground v.1.15,2013-03-19 06:05:00,
2013-03-18 23:15:00,45.0,42.8,30.05,NW,319,0.0,0.0,92,0.00,,,0.00,Wunderground v.1.15,2013-03-19 06:15:00,
2013-03-18 23:25:00,44.8,42.6,30.05,NW,319,0.0,0.0,92,0.00,,,0.00,Wunderground v.1.15,2013-03-19 06:25:00,
2013-03-18 23:30:00,44.7,42.8,30.05,NW,319,0.0,0.0,93,0.00,,,0.00,Wunderground v.1.15,2013-03-19 06:30:00,
2013-03-18 23:40:00,44.6,42.7,30.05,NW,319,0.0,0.0,93,0.00,,,0.00,Wunderground v.1.15,2013-03-19 06:40:00,
2013-03-18 23:50:00,44.5,42.6,30.05,NW,319,0.0,0.0,93,0.00,,,0.00,Wunderground v.1.15,2013-03-19 06:50:00,